Time;durP1;ratioP1;P1;durP2;ratioP2;P2;SDS_P1;SDS_P2;PMS_P1;PMS_P2;Temp;Humidity;BMP_temperature;BMP_pressure;BME280_temperature;BME280_humidity;BME280_pressure;Samples;Min_cycle;Max_cycle;Signal;HPM_P1;HPM_P2
2023/12/05 00:01:32;;;;;;;42.88;30.77;;;;;;;0.49;100.00;160701.16;5050079;28;20036;-60
2023/12/05 00:03:58;;;;;;;53.30;33.50;;;;;;;0.50;100.00;160702.53;5050072;28;20084;-60
2023/12/05 00:06:24;;;;;;;44.40;31.42;;;;;;;0.39;100.00;160675.69;5048573;28;20037;-60
2023/12/05 00:08:49;;;;;;;49.97;32.53;;;;;;;0.51;100.00;160705.22;5050151;28;20352;-60
2023/12/05 00:11:15;;;;;;;48.45;31.98;;;;;;;0.49;100.00;160701.16;5048113;28;20059;-60
2023/12/05 00:13:40;;;;;;;50.50;30.92;;;;;;;0.52;100.00;160709.22;5050286;28;20024;-60
2023/12/05 00:16:07;;;;;;;49.38;32.03;;;;;;;0.57;100.00;160722.59;5048893;28;20079;-60
2023/12/05 00:18:33;;;;;;;41.95;29.42;;;;;;;0.45;100.00;160690.44;5049441;28;20029;-60
2023/12/05 00:20:59;;;;;;;47.97;30.33;;;;;;;0.43;100.00;160685.06;5048737;28;20045;-60
2023/12/05 00:23:25;;;;;;;48.17;32.22;;;;;;;0.51;100.00;160706.53;5050231;28;20028;-60
2023/12/05 00:25:50;;;;;;;44.83;31.33;;;;;;;0.49;100.00;160701.16;5049267;28;20649;-59
2023/12/05 00:28:16;;;;;;;47.10;33.53;;;;;;;0.47;100.00;160697.16;5053573;28;20487;-59
2023/12/05 00:30:41;;;;;;;45.72;31.55;;;;;;;0.50;100.00;160703.84;5052478;28;20041;-60
2023/12/05 00:33:06;;;;;;;46.30;31.63;;;;;;;0.39;100.00;160674.38;5053549;28;20069;-60
2023/12/05 00:35:32;;;;;;;46.55;31.13;;;;;;;0.43;100.00;160685.06;5052055;28;20063;-60
2023/12/05 00:37:58;;;;;;;48.75;33.28;;;;;;;0.45;100.00;160690.44;5053535;28;20149;-60
2023/12/05 00:40:29;;;;;;;52.70;32.30;;;;;;;0.46;100.00;160693.13;5051530;28;20463;-61
2023/12/05 00:42:55;;;;;;;52.80;32.33;;;;;;;0.46;100.00;160694.44;5053832;28;20032;-61
2023/12/05 00:45:21;;;;;;;47.42;31.38;;;;;;;0.47;100.00;160697.16;5052039;28;20036;-60
2023/12/05 00:47:46;;;;;;;43.92;29.27;;;;;;;0.52;100.00;160709.22;5053049;28;20029;-61
2023/12/05 00:50:12;;;;;;;50.40;32.05;;;;;;;0.47;100.00;160695.81;5051719;28;20045;-59
2023/12/05 00:52:37;;;;;;;44.72;31.52;;;;;;;0.51;100.00;160706.53;5053414;28;20507;-59
2023/12/05 00:55:03;;;;;;;49.40;31.60;;;;;;;0.54;100.00;160714.59;5051865;28;20056;-59
2023/12/05 00:57:28;;;;;;;45.28;30.33;;;;;;;0.53;100.00;160711.91;5053215;28;20096;-59
2023/12/05 00:59:54;;;;;;;48.97;31.45;;;;;;;0.55;100.00;160715.91;5052024;28;20045;-59
2023/12/05 01:02:19;;;;;;;44.60;29.65;;;;;;;0.54;100.00;160714.59;5052808;28;20507;-59
2023/12/05 01:04:45;;;;;;;43.75;29.27;;;;;;;0.49;100.00;160701.16;5051952;28;20404;-59
2023/12/05 01:07:12;;;;;;;44.92;29.80;;;;;;;0.58;100.00;160725.28;5053094;28;20016;-59
2023/12/05 01:09:41;;;;;;;44.95;30.70;;;;;;;0.59;100.00;160727.97;5051198;28;20516;-59
2023/12/05 01:12:10;;;;;;;;;;;;;;;0.60;100.00;160730.66;5053396;28;20024;-59
2023/12/05 01:14:36;;;;;;;42.45;27.02;;;;;;;0.59;100.00;160727.97;5051530;28;19917;-58
2023/12/05 01:17:01;;;;;;;46.50;30.80;;;;;;;0.65;100.00;160741.38;5052555;28;20044;-58
2023/12/05 01:19:26;;;;;;;47.17;29.95;;;;;;;0.66;100.00;160744.06;5051507;28;20538;-58
2023/12/05 01:21:52;;;;;;;47.67;29.98;;;;;;;0.61;100.00;160733.34;5052711;28;20029;-58
2023/12/05 01:24:17;;;;;;;47.72;31.85;;;;;;;0.67;100.00;160748.06;5050961;28;22723;-58
2023/12/05 01:26:42;;;;;;;45.20;30.50;;;;;;;0.65;100.00;160742.75;5052898;28;20074;-57
2023/12/05 01:29:08;;;;;;;67.93;33.40;;;;;;;0.70;100.00;160756.13;5051133;28;20032;-58
2023/12/05 01:31:33;;;;;;;45.05;28.38;;;;;;;0.63;100.00;160738.69;5052051;28;20500;-58
2023/12/05 01:33:58;;;;;;;47.63;33.35;;;;;;;0.67;100.00;160746.75;5051396;28;20033;-58
2023/12/05 01:36:26;;;;;;;46.88;30.13;;;;;;;0.67;100.00;160746.75;5052226;28;20118;-58
2023/12/05 01:38:52;;;;;;;48.97;30.52;;;;;;;0.71;100.00;160757.50;5052399;28;20029;-60
2023/12/05 01:41:18;;;;;;;47.45;31.23;;;;;;;0.74;100.00;160765.53;5051057;28;20103;-60
2023/12/05 01:43:43;;;;;;;49.22;30.85;;;;;;;0.78;100.00;160776.28;5052371;28;20037;-61
2023/12/05 01:46:09;;;;;;;47.15;30.02;;;;;;;0.77;100.00;160774.91;5050834;28;20111;-61
2023/12/05 01:48:35;;;;;;;46.33;29.35;;;;;;;0.70;100.00;160754.81;5050975;28;20029;-60
2023/12/05 01:51:04;;;;;;;50.70;31.65;;;;;;;0.75;100.00;160769.53;5050837;28;20066;-60
2023/12/05 01:53:31;;;;;;;42.45;29.67;;;;;;;0.80;100.00;160781.59;5051850;28;20021;-60
2023/12/05 01:55:58;;;;;;;46.85;30.67;;;;;;;0.76;100.00;160772.22;5050766;28;20046;-60
2023/12/05 01:58:24;;;;;;;45.90;30.58;;;;;;;0.83;100.00;160789.66;5052192;28;20462;-60
2023/12/05 02:00:49;;;;;;;45.15;29.83;;;;;;;0.77;100.00;160774.91;5050403;28;20115;-60
2023/12/05 02:03:15;;;;;;;47.00;32.67;;;;;;;0.81;100.00;160784.28;5051787;28;20151;-60
2023/12/05 02:05:41;;;;;;;48.65;30.75;;;;;;;0.83;100.00;160788.28;5050366;28;20182;-60
2023/12/05 02:08:10;;;;;;;46.38;29.13;;;;;;;0.77;100.00;160773.59;5051845;28;20033;-60
2023/12/05 02:10:35;;;;;;;42.63;30.25;;;;;;;0.79;100.00;160780.28;5050613;28;20094;-60
2023/12/05 02:13:01;;;;;;;43.78;29.95;;;;;;;0.80;100.00;160781.59;5051752;28;20369;-60
2023/12/05 02:15:26;;;;;;;43.30;29.83;;;;;;;0.83;100.00;160789.66;5050109;28;20127;-60
2023/12/05 02:18:18;;;;;;;41.60;28.67;;;;;;;0.83;100.00;160789.66;5051801;28;20025;-59
2023/12/05 02:21:10;;;;;;;48.50;33.50;;;;;;;0.86;100.00;160797.69;5050315;28;20052;-60
2023/12/05 02:24:03;;;;;;;44.10;29.48;;;;;;;0.86;100.00;160797.69;5051454;28;20025;-60
2023/12/05 02:26:46;;;;;;;46.58;31.30;;;;;;;0.94;100.00;160819.16;5050221;28;20664;-60
2023/12/05 02:29:11;;;;;;;46.90;32.78;;;;;;;0.99;100.00;160831.22;5050295;28;20025;-60
2023/12/05 02:31:37;;;;;;;41.03;30.30;;;;;;;0.97;100.00;160824.53;5051304;28;20526;-60
2023/12/05 02:34:03;;;;;;;45.47;31.27;;;;;;;0.99;100.00;160829.91;5049949;28;20076;-59
2023/12/05 02:36:41;;;;;;;41.15;27.33;;;;;;;0.95;100.00;160821.84;5050932;28;20045;-60
2023/12/05 02:39:38;;;;;;;40.40;30.77;;;;;;;0.89;100.00;160805.75;5049818;28;20056;-60
2023/12/05 02:42:08;;;;;;;42.42;28.88;;;;;;;0.93;100.00;160816.47;5051638;28;20105;-60
2023/12/05 02:44:42;;;;;;;41.80;30.40;;;;;;;0.86;100.00;160797.69;5049567;28;20040;-60
2023/12/05 02:47:10;;;;;;;44.25;31.58;;;;;;;0.88;100.00;160803.06;5051355;28;20029;-60
2023/12/05 02:49:36;;;;;;;41.03;28.58;;;;;;;0.89;100.00;160805.75;5049352;28;20530;-60
2023/12/05 02:52:01;;;;;;;43.67;28.98;;;;;;;0.94;100.00;160819.16;5050497;28;20025;-60
2023/12/05 02:54:26;;;;;;;39.55;29.33;;;;;;;0.95;100.00;160821.84;5049649;28;20037;-60
2023/12/05 02:56:52;;;;;;;41.17;28.17;;;;;;;0.97;100.00;160824.53;5051176;28;20028;-60
2023/12/05 02:59:17;;;;;;;48.85;30.98;;;;;;;0.92;100.00;160813.81;5049334;28;20032;-60
2023/12/05 03:01:43;;;;;;;40.15;29.60;;;;;;;0.93;100.00;160816.47;5050946;28;20024;-60
2023/12/05 03:04:08;;;;;;;41.67;28.90;;;;;;;0.98;100.00;160827.22;5049537;28;20017;-60
2023/12/05 03:06:33;;;;;;;40.83;30.17;;;;;;;1.02;100.00;160837.91;5050691;28;20017;-60
2023/12/05 03:09:03;;;;;;;43.25;29.90;;;;;;;0.97;100.00;160824.53;5049216;28;20025;-60
2023/12/05 03:11:29;;;;;;;40.92;29.95;;;;;;;0.92;100.00;160813.81;5050900;28;20047;-61
2023/12/05 03:13:54;;;;;;;48.58;31.50;;;;;;;0.97;100.00;160824.53;5050853;28;20103;-60
2023/12/05 03:16:20;;;;;;;42.45;30.17;;;;;;;0.94;100.00;160819.16;5048744;28;20539;-61
2023/12/05 03:18:45;;;;;;;43.30;29.63;;;;;;;0.97;100.00;160825.84;5050561;28;20029;-60
2023/12/05 03:21:18;;;;;;;45.30;28.77;;;;;;;0.93;100.00;160816.47;5048963;28;20048;-60
2023/12/05 03:23:44;;;;;;;46.05;30.08;;;;;;;1.03;100.00;160840.59;5050443;28;20369;-62
2023/12/05 03:26:20;;;;;;;42.75;28.80;;;;;;;1.03;100.00;160841.97;5049416;28;20123;-60
2023/12/05 03:28:47;;;;;;;45.47;32.05;;;;;;;1.01;100.00;160836.59;5050880;28;20047;-60
2023/12/05 03:31:12;;;;;;;44.67;33.10;;;;;;;1.03;100.00;160840.59;5048711;28;20452;-59
2023/12/05 03:33:38;;;;;;;46.10;31.92;;;;;;;1.00;100.00;160832.59;5050328;28;20029;-59
2023/12/05 03:36:04;;;;;;;41.88;29.08;;;;;;;1.03;100.00;160840.59;5049334;28;20037;-59
2023/12/05 03:38:30;;;;;;;54.15;32.90;;;;;;;1.02;100.00;160837.91;5049797;28;20029;-59
2023/12/05 03:40:55;;;;;;;46.80;32.83;;;;;;;1.05;100.00;160845.97;5049135;28;20037;-59
2023/12/05 03:43:21;;;;;;;45.97;29.58;;;;;;;1.06;100.00;160848.69;5050199;28;20403;-60
2023/12/05 03:45:47;;;;;;;42.63;29.75;;;;;;;1.08;100.00;160854.06;5049226;28;20040;-61
2023/12/05 03:48:13;;;;;;;51.88;32.55;;;;;;;1.07;100.00;160851.38;5050042;28;20051;-60
2023/12/05 03:50:38;;;;;;;42.20;28.83;;;;;;;1.14;100.00;160870.13;5048966;28;20056;-60
2023/12/05 03:53:03;;;;;;;42.08;31.98;;;;;;;1.09;100.00;160856.69;5050073;28;20017;-60
2023/12/05 03:55:30;;;;;;;41.10;28.25;;;;;;;1.11;100.00;160862.06;5048796;28;20037;-60
2023/12/05 03:57:56;;;;;;;44.22;31.02;;;;;;;1.04;100.00;160843.28;5050355;28;20621;-60
2023/12/05 04:00:21;;;;;;;49.03;30.73;;;;;;;1.06;100.00;160848.69;5048281;28;20044;-60
2023/12/05 04:02:46;;;;;;;42.10;31.40;;;;;;;1.09;100.00;160856.69;5054298;28;20029;-60
2023/12/05 04:05:12;;;;;;;41.78;29.90;;;;;;;1.11;100.00;160862.06;5053196;28;20036;-59
2023/12/05 04:07:37;;;;;;;42.45;30.33;;;;;;;1.13;100.00;160866.06;5054109;28;20033;-59
2023/12/05 04:10:03;;;;;;;38.60;31.17;;;;;;;1.12;100.00;160864.75;5052712;28;20017;-59
2023/12/05 04:12:28;;;;;;;41.28;29.02;;;;;;;1.13;100.00;160867.44;5053981;28;20028;-59
2023/12/05 04:14:54;;;;;;;41.20;30.52;;;;;;;1.12;100.00;160864.75;5052698;28;20024;-56
2023/12/05 04:17:19;;;;;;;44.92;30.67;;;;;;;1.14;100.00;160868.78;5053819;28;20020;-59
2023/12/05 04:19:45;;;;;;;46.55;33.42;;;;;;;1.12;100.00;160864.75;5054184;28;20020;-59
2023/12/05 04:22:10;;;;;;;44.15;30.10;;;;;;;1.17;100.00;160876.84;5052115;28;20041;-59
2023/12/05 04:24:35;;;;;;;43.58;32.15;;;;;;;1.20;100.00;160886.22;5054030;28;20468;-59
2023/12/05 04:27:01;;;;;;;39.78;29.63;;;;;;;1.29;100.00;160909.00;5052665;28;20048;-59
2023/12/05 04:29:26;;;;;;;42.08;29.73;;;;;;;1.25;100.00;160899.63;5051999;28;20037;-59
2023/12/05 04:31:51;;;;;;;40.42;28.98;;;;;;;1.34;100.00;160921.09;5053696;28;20025;-60
2023/12/05 04:34:17;;;;;;;50.13;29.98;;;;;;;1.30;100.00;160910.38;5052404;28;20029;-59
2023/12/05 04:36:42;;;;;;;44.63;31.40;;;;;;;1.31;100.00;160913.03;5053261;28;20095;-59
2023/12/05 04:39:08;;;;;;;42.35;29.02;;;;;;;1.28;100.00;160906.31;5052404;28;20430;-59
2023/12/05 04:41:35;;;;;;;41.47;29.77;;;;;;;1.30;100.00;160910.38;5053705;28;20021;-59
2023/12/05 04:44:01;;;;;;;44.28;30.60;;;;;;;1.35;100.00;160923.78;5052124;28;20108;-59
2023/12/05 04:46:26;;;;;;;44.92;33.20;;;;;;;1.31;100.00;160913.03;5053470;28;20488;-59
2023/12/05 04:48:51;;;;;;;40.70;28.80;;;;;;;1.35;100.00;160923.78;5053674;28;20059;-61
2023/12/05 04:51:20;;;;;;;47.05;32.47;;;;;;;1.37;100.00;160929.16;5051539;28;20416;-61
2023/12/05 04:53:45;;;;;;;45.55;33.85;;;;;;;1.37;100.00;160929.16;5053402;28;20020;-61
2023/12/05 04:56:11;;;;;;;44.80;30.67;;;;;;;1.33;100.00;160918.41;5051788;28;20064;-61
2023/12/05 04:58:36;;;;;;;42.30;31.58;;;;;;;1.35;100.00;160925.09;5053279;28;20035;-61
2023/12/05 05:01:02;;;;;;;45.10;32.08;;;;;;;1.37;100.00;160930.47;5051885;28;20506;-61
2023/12/05 05:03:28;;;;;;;40.55;29.70;;;;;;;1.35;100.00;160923.78;5053131;28;20029;-61
2023/12/05 05:05:53;;;;;;;43.15;29.15;;;;;;;1.39;100.00;160934.50;5051521;28;20537;-59
2023/12/05 05:08:18;;;;;;;48.05;30.35;;;;;;;1.38;100.00;160931.78;5052965;28;20369;-59
2023/12/05 05:10:44;;;;;;;39.30;28.98;;;;;;;1.39;100.00;160935.84;5051499;28;20049;-60
2023/12/05 05:13:09;;;;;;;45.08;29.48;;;;;;;1.41;100.00;160939.88;5051229;28;20035;-60
2023/12/05 05:15:34;;;;;;;41.30;31.75;;;;;;;1.39;100.00;160935.84;5050909;28;20033;-60
2023/12/05 05:18:00;;;;;;;41.25;29.67;;;;;;;1.41;100.00;160939.88;5053065;28;20032;-60
2023/12/05 05:20:25;;;;;;;45.20;32.00;;;;;;;1.41;100.00;160939.88;5050732;28;20047;-60
2023/12/05 05:22:51;;;;;;;45.00;31.80;;;;;;;1.40;100.00;160937.19;5052306;28;20029;-60
2023/12/05 05:25:18;;;;;;;42.00;31.40;;;;;;;1.37;100.00;160930.47;5050843;28;20512;-60
2023/12/05 05:27:44;;;;;;;39.00;29.48;;;;;;;1.38;100.00;160933.16;5052050;28;20056;-60
2023/12/05 05:30:10;;;;;;;43.33;29.05;;;;;;;1.41;100.00;160941.25;5051522;28;20075;-61
2023/12/05 05:32:36;;;;;;;44.08;30.85;;;;;;;1.39;100.00;160934.50;5052526;28;20017;-57
2023/12/05 05:35:02;;;;;;;49.40;31.10;;;;;;;1.41;100.00;160941.25;5051099;28;20458;-58
2023/12/05 05:37:28;;;;;;;45.58;31.70;;;;;;;1.38;100.00;160931.78;5051542;28;20578;-58
2023/12/05 05:39:53;;;;;;;44.00;31.20;;;;;;;1.36;100.00;160926.47;5050996;28;20037;-58
2023/12/05 05:42:19;;;;;;;46.50;31.38;;;;;;;1.39;100.00;160934.50;5052146;28;20036;-58
2023/12/05 05:44:45;;;;;;;49.38;34.40;;;;;;;1.44;100.00;160947.94;5051012;28;20094;-58
2023/12/05 05:47:10;;;;;;;42.70;30.13;;;;;;;1.41;100.00;160939.88;5052526;28;20055;-58
2023/12/05 05:49:36;;;;;;;47.08;32.22;;;;;;;1.41;100.00;160939.88;5050487;28;20047;-58
2023/12/05 05:52:01;;;;;;;50.65;32.38;;;;;;;1.43;100.00;160945.25;5052287;28;20029;-58
2023/12/05 05:54:27;;;;;;;46.20;33.22;;;;;;;1.40;100.00;160937.19;5050600;28;20033;-58
2023/12/05 05:56:52;;;;;;;48.30;32.72;;;;;;;1.43;100.00;160945.25;5052266;28;20029;-58
2023/12/05 05:59:17;;;;;;;50.03;32.65;;;;;;;1.38;100.00;160931.78;5050560;28;20032;-58
2023/12/05 06:01:46;;;;;;;52.15;32.97;;;;;;;1.43;100.00;160945.25;5049051;28;20032;-58
2023/12/05 06:04:11;;;;;;;;;;;;;;;1.44;100.00;160947.94;5039887;28;20017;-58
2023/12/05 06:06:37;;;;;;;53.73;31.93;;;;;;;1.39;100.00;160934.50;5038695;28;19909;-58
2023/12/05 06:09:02;;;;;;;47.30;32.22;;;;;;;1.44;100.00;160947.94;5039135;28;20523;-57
2023/12/05 06:11:27;;;;;;;50.25;33.17;;;;;;;1.43;100.00;160945.25;5038310;28;20128;-58
2023/12/05 06:13:54;;;;;;;49.80;34.03;;;;;;;1.44;100.00;160947.94;5037884;28;20029;-58
2023/12/05 06:16:19;;;;;;;56.70;33.75;;;;;;;1.45;100.00;160950.63;5037254;28;20072;-58
2023/12/05 06:18:45;;;;;;;51.17;35.13;;;;;;;1.48;100.00;160958.66;5039034;28;20013;-58
2023/12/05 06:21:10;;;;;;;46.03;30.45;;;;;;;1.46;100.00;160953.25;5038359;28;20455;-58
2023/12/05 06:23:38;;;;;;;49.78;32.90;;;;;;;1.43;100.00;160945.25;5038157;28;20025;-58
2023/12/05 06:26:04;;;;;;;51.22;34.58;;;;;;;1.48;100.00;160957.31;5037317;28;20045;-58
2023/12/05 06:28:29;;;;;;;58.83;36.20;;;;;;;1.49;100.00;160961.34;5038945;28;20898;-58
2023/12/05 06:30:55;;;;;;;56.90;37.42;;;;;;;1.50;100.00;160964.03;5036834;28;20045;-58
2023/12/05 06:33:20;;;;;;;61.25;37.55;;;;;;;1.33;100.00;160918.41;5033598;28;20083;-58
2023/12/05 06:35:45;;;;;;;53.70;37.47;;;;;;;1.37;100.00;160930.47;5029898;28;20048;-58
2023/12/05 06:38:11;;;;;;;56.63;35.25;;;;;;;1.52;100.00;160969.41;5031064;28;20045;-58
2023/12/05 06:40:36;;;;;;;48.50;32.15;;;;;;;1.49;100.00;160961.34;5030139;28;20052;-58
2023/12/05 06:43:02;;;;;;;56.92;34.60;;;;;;;1.48;100.00;160958.66;5029925;28;20061;-58
2023/12/05 06:45:27;;;;;;;49.17;32.53;;;;;;;1.40;100.00;160937.19;5029671;28;20045;-58
2023/12/05 06:47:53;;;;;;;53.65;33.88;;;;;;;1.50;100.00;160964.03;5038876;28;20116;-58
2023/12/05 06:50:18;;;;;;;50.85;34.60;;;;;;;1.53;100.00;160972.03;5043648;28;20041;-58
2023/12/05 06:52:44;;;;;;;55.97;39.40;;;;;;;1.51;100.00;160966.72;5051024;28;20043;-58
2023/12/05 06:55:09;;;;;;;49.55;34.75;;;;;;;1.52;100.00;160968.03;5049738;28;20240;-58
2023/12/05 06:57:35;;;;;;;53.55;34.17;;;;;;;1.51;100.00;160966.72;5050441;28;20111;-58
2023/12/05 07:00:00;;;;;;;58.53;37.78;;;;;;;1.48;100.00;160958.66;5048639;28;20089;-58
2023/12/05 07:02:26;;;;;;;71.78;38.55;;;;;;;1.49;100.00;160961.34;5050844;28;20035;-58
2023/12/05 07:04:51;;;;;;;57.15;36.67;;;;;;;1.50;100.00;160964.03;5047446;28;20041;-58
2023/12/05 07:07:17;;;;;;;61.13;39.38;;;;;;;1.44;100.00;160947.94;5050876;28;20048;-58
2023/12/05 07:09:42;;;;;;;63.42;37.72;;;;;;;1.37;100.00;160929.16;5049468;28;20153;-57
2023/12/05 07:12:08;;;;;;;60.08;38.33;;;;;;;1.49;100.00;160961.34;5048280;28;20369;-58
2023/12/05 07:14:36;;;;;;;64.55;39.25;;;;;;;1.49;100.00;160961.34;5048540;28;20060;-58
2023/12/05 07:17:02;;;;;;;69.65;41.65;;;;;;;1.48;100.00;160958.66;5050894;28;20108;-58
2023/12/05 07:19:28;;;;;;;64.70;42.67;;;;;;;1.51;100.00;160966.72;5048732;28;20123;-58
2023/12/05 07:21:53;;;;;;;69.45;39.78;;;;;;;1.50;100.00;160964.03;5050863;28;20107;-57
2023/12/05 07:24:18;;;;;;;66.50;40.72;;;;;;;1.54;100.00;160974.75;5049249;28;20029;-58
2023/12/05 07:26:46;;;;;;;74.75;40.22;;;;;;;1.54;100.00;160973.41;5050360;28;20021;-58
2023/12/05 07:29:12;;;;;;;65.45;39.17;;;;;;;1.55;100.00;160976.09;5049150;28;20028;-58
2023/12/05 07:31:37;;;;;;;66.28;40.65;;;;;;;1.53;100.00;160972.03;5050778;28;20036;-58
2023/12/05 07:34:02;;;;;;;65.15;38.67;;;;;;;1.54;100.00;160974.75;5048940;28;20032;-57
2023/12/05 07:36:28;;;;;;;68.18;39.22;;;;;;;1.50;100.00;160964.03;5050019;28;20087;-57
2023/12/05 07:38:53;;;;;;;65.35;41.47;;;;;;;1.55;100.00;160977.44;5050565;28;20048;-58
2023/12/05 07:41:20;;;;;;;63.63;39.17;;;;;;;1.55;100.00;160977.44;5048361;28;20037;-58
2023/12/05 07:43:46;;;;;;;68.45;39.75;;;;;;;1.55;100.00;160977.44;5050659;28;20384;-58
2023/12/05 07:46:11;;;;;;;70.70;38.85;;;;;;;1.58;100.00;160984.13;5032024;28;20041;-58
2023/12/05 07:48:37;;;;;;;68.95;42.03;;;;;;;1.60;100.00;160989.50;5030307;28;20082;-58
2023/12/05 07:51:02;;;;;;;73.30;43.10;;;;;;;1.63;100.00;160996.22;5045801;28;20041;-57
2023/12/05 07:53:28;;;;;;;68.82;41.53;;;;;;;1.64;100.00;160998.91;5050204;28;20116;-58
2023/12/05 07:55:53;;;;;;;65.20;39.63;;;;;;;1.64;100.00;160998.91;5048314;28;20041;-58
2023/12/05 07:58:18;;;;;;;70.05;41.13;;;;;;;1.58;100.00;160984.13;5049304;28;20040;-58
2023/12/05 08:00:44;;;;;;;66.20;44.63;;;;;;;1.57;100.00;160982.81;5048373;28;20087;-58
2023/12/05 08:03:13;;;;;;;61.63;41.63;;;;;;;1.67;100.00;161006.97;5049390;28;20048;-58
2023/12/05 08:05:38;;;;;;;;;;;;;;;1.64;100.00;160998.91;5048869;28;20041;-58
2023/12/05 08:08:04;;;;;;;62.25;40.03;;;;;;;1.68;100.00;161009.59;5049773;28;19909;-58
2023/12/05 08:10:29;;;;;;;71.82;40.85;;;;;;;1.67;100.00;161006.97;5047216;28;20048;-58
2023/12/05 08:12:54;;;;;;;66.63;42.08;;;;;;;1.71;100.00;161019.00;5050133;28;20090;-58
2023/12/05 08:15:20;;;;;;;62.97;39.42;;;;;;;1.71;100.00;161017.69;5048671;28;20076;-58
2023/12/05 08:17:45;;;;;;;68.38;41.30;;;;;;;1.67;100.00;161008.28;5050029;28;20606;-58
2023/12/05 08:20:11;;;;;;;63.20;39.50;;;;;;;1.69;100.00;161012.31;5048533;28;20496;-58
2023/12/05 08:22:36;;;;;;;67.57;43.72;;;;;;;1.69;100.00;161012.31;5050408;28;20057;-58
2023/12/05 08:25:02;;;;;;;66.63;44.63;;;;;;;1.72;100.00;161021.69;5048454;28;20468;-57
2023/12/05 08:27:27;;;;;;;70.75;42.55;;;;;;;1.75;100.00;161028.38;5050265;28;20025;-58
2023/12/05 08:29:52;;;;;;;66.35;44.15;;;;;;;1.75;100.00;161028.38;5048832;28;20041;-57
2023/12/05 08:32:18;;;;;;;64.63;39.88;;;;;;;1.69;100.00;161012.31;5049621;28;20100;-58
2023/12/05 08:34:43;;;;;;;63.00;40.95;;;;;;;1.75;100.00;161028.38;5048539;28;20044;-58
2023/12/05 08:37:09;;;;;;;62.58;41.13;;;;;;;1.77;100.00;161033.78;5050023;28;20485;-58
2023/12/05 08:39:34;;;;;;;63.90;41.28;;;;;;;1.75;100.00;161028.38;5048128;28;20033;-58
2023/12/05 08:41:59;;;;;;;66.28;39.55;;;;;;;1.68;100.00;161009.59;5049767;28;20017;-57
2023/12/05 08:44:25;;;;;;;66.22;38.85;;;;;;;1.72;100.00;161020.38;5048331;28;20029;-58
2023/12/05 08:46:51;;;;;;;59.15;36.03;;;;;;;1.71;100.00;161017.69;5042013;28;20035;-58
2023/12/05 08:49:16;;;;;;;66.00;41.47;;;;;;;1.74;100.00;161025.75;5033248;28;20037;-58
2023/12/05 08:51:42;;;;;;;54.88;36.70;;;;;;;1.76;100.00;161031.09;5053492;28;20028;-58
2023/12/05 08:54:07;;;;;;;59.65;35.35;;;;;;;1.76;100.00;161031.09;5051397;28;20036;-57
2023/12/05 08:56:32;;;;;;;59.53;37.05;;;;;;;1.69;100.00;161012.31;5052717;28;20029;-57
2023/12/05 08:58:58;;;;;;;60.72;38.08;;;;;;;1.77;100.00;161033.78;5051919;28;20032;-57
2023/12/05 09:01:24;;;;;;;57.53;38.58;;;;;;;1.81;100.00;161043.16;5052983;28;20057;-58
2023/12/05 09:03:52;;;;;;;53.38;36.15;;;;;;;1.76;100.00;161031.09;5052933;28;20047;-58
2023/12/05 09:06:17;;;;;;;41.60;27.83;;;;;;;1.79;100.00;161037.84;5051368;28;20575;-58
2023/12/05 09:08:43;;;;;;;54.15;35.13;;;;;;;1.81;100.00;161044.53;5053253;28;20024;-58
2023/12/05 09:11:09;;;;;;;56.95;34.47;;;;;;;1.77;100.00;161033.78;5051252;28;20041;-58
2023/12/05 09:13:34;;;;;;;55.53;35.63;;;;;;;1.83;100.00;161048.53;5053019;28;20025;-58
2023/12/05 09:16:00;;;;;;;56.90;37.28;;;;;;;1.88;100.00;161063.31;5051742;28;20041;-58
2023/12/05 09:18:25;;;;;;;58.53;39.25;;;;;;;1.87;100.00;161059.25;5051429;28;20126;-58
2023/12/05 09:20:50;;;;;;;61.15;39.00;;;;;;;1.92;100.00;161071.34;5051581;28;20036;-58
2023/12/05 09:23:16;;;;;;;59.97;37.90;;;;;;;1.96;100.00;161083.44;5052282;28;20047;-58
2023/12/05 09:25:41;;;;;;;60.05;38.72;;;;;;;1.97;100.00;161086.13;5051292;28;20053;-58
2023/12/05 09:28:07;;;;;;;52.28;37.88;;;;;;;1.85;100.00;161055.25;5052670;28;20029;-58
2023/12/05 09:30:32;;;;;;;61.63;38.05;;;;;;;1.88;100.00;161063.31;5051093;28;20045;-58
2023/12/05 09:32:57;;;;;;;54.92;37.10;;;;;;;1.85;100.00;161055.25;5052538;28;20037;-58
2023/12/05 09:35:23;;;;;;;56.83;36.67;;;;;;;1.82;100.00;161047.22;5051283;28;20040;-58
2023/12/05 09:37:48;;;;;;;55.95;35.05;;;;;;;1.83;100.00;161049.88;5052488;28;20542;-58
2023/12/05 09:40:15;;;;;;;57.03;35.60;;;;;;;1.81;100.00;161044.53;5050589;28;20051;-58
2023/12/05 09:42:43;;;;;;;64.25;42.00;;;;;;;1.73;100.00;161024.38;5052659;28;20021;-58
2023/12/05 09:45:14;;;;;;;52.33;35.72;;;;;;;1.69;100.00;161013.66;5051211;28;20462;-58
2023/12/05 09:47:42;;;;;;;52.65;36.30;;;;;;;1.76;100.00;161029.75;5052238;28;20475;-58
2023/12/05 09:50:09;;;;;;;60.10;36.67;;;;;;;1.77;100.00;161032.44;5051118;28;20573;-58
2023/12/05 09:52:35;;;;;;;57.40;40.20;;;;;;;1.68;100.00;161010.97;5052022;28;20036;-58
2023/12/05 09:55:01;;;;;;;58.78;36.83;;;;;;;1.65;100.00;161001.59;5050521;28;20064;-58
2023/12/05 09:57:28;;;;;;;72.72;48.53;;;;;;;1.64;100.00;160998.91;5052343;28;20048;-58
2023/12/05 09:59:54;;;;;;;65.43;49.80;;;;;;;1.65;100.00;161001.59;5050910;28;20535;-58
2023/12/05 10:02:20;;;;;;;54.25;37.97;;;;;;;1.61;100.00;160990.81;5051759;28;20044;-58
2023/12/05 10:04:54;;;;;;;62.75;37.20;;;;;;;1.69;100.00;161012.31;5051028;28;20098;-58
2023/12/05 10:07:21;;;;;;;57.75;37.80;;;;;;;1.61;100.00;160992.19;5051801;28;20024;-58
2023/12/05 10:09:50;;;;;;;67.20;46.85;;;;;;;1.61;100.00;160992.19;5050457;28;20055;-58
2023/12/05 10:12:15;;;;;;;55.72;38.25;;;;;;;1.65;100.00;161001.59;5051715;28;20048;-58
2023/12/05 10:14:41;;;;;;;78.65;55.65;;;;;;;1.60;100.00;160988.19;5050825;28;20045;-58
2023/12/05 10:17:07;;;;;;;79.45;53.95;;;;;;;1.57;100.00;160981.44;5051813;28;20456;-58
2023/12/05 10:19:34;;;;;;;83.40;59.28;;;;;;;1.49;100.00;160961.34;5050084;28;20049;-58
2023/12/05 10:21:59;;;;;;;64.72;41.83;;;;;;;1.60;100.00;160988.19;5051836;28;20028;-58
2023/12/05 10:24:46;;;;;;;66.97;45.80;;;;;;;1.57;100.00;160982.81;5049777;28;20102;-58
2023/12/05 10:27:12;;;;;;;84.75;56.75;;;;;;;1.60;100.00;160988.19;5051852;28;20436;-58
2023/12/05 10:29:39;;;;;;;79.53;56.70;;;;;;;1.63;100.00;160997.56;5050212;28;20067;-58
2023/12/05 10:32:05;;;;;;;74.25;50.42;;;;;;;1.62;100.00;160993.53;5051437;28;20050;-58
2023/12/05 10:34:44;;;;;;;55.97;39.22;;;;;;;1.54;100.00;160974.75;5050573;28;20025;-58
2023/12/05 10:37:10;;;;;;;;;;;;;;;1.61;100.00;160990.81;5049621;28;20101;-58
2023/12/05 10:39:36;;;;;;;67.97;47.25;;;;;;;1.55;100.00;160977.44;5050802;28;19913;-58
2023/12/05 10:42:01;;;;;;;71.75;39.55;;;;;;;1.58;100.00;160985.50;5049724;28;20070;-58
2023/12/05 10:44:27;;;;;;;67.20;45.72;;;;;;;1.56;100.00;160980.13;5051047;28;20028;-58
2023/12/05 10:46:56;;;;;;;64.68;48.65;;;;;;;1.63;100.00;160996.22;5049342;28;20511;-58
2023/12/05 10:49:22;;;;;;;64.30;42.78;;;;;;;1.59;100.00;160986.81;5050940;28;20025;-58
2023/12/05 10:51:48;;;;;;;96.38;74.47;;;;;;;1.55;100.00;160977.44;5049890;28;20063;-58
2023/12/05 10:54:13;;;;;;;54.80;42.30;;;;;;;1.55;100.00;160977.44;5050433;28;20031;-58
2023/12/05 10:56:57;;;;;;;74.72;53.58;;;;;;;1.57;100.00;160982.81;5049804;28;20037;-58
2023/12/05 10:59:27;;;;;;;75.50;48.72;;;;;;;1.57;100.00;160982.81;5051265;28;20025;-58
2023/12/05 11:01:56;;;;;;;67.45;47.03;;;;;;;1.61;100.00;160990.81;5049485;28;20588;-58
2023/12/05 11:04:21;;;;;;;;;;;;;;;1.66;100.00;161005.59;5051315;28;20063;-58
2023/12/05 11:06:47;;;;;;;72.65;43.30;;;;;;;1.68;100.00;161010.97;5049748;28;20390;-58
2023/12/05 11:09:12;;;;;;;64.13;45.95;;;;;;;1.77;100.00;161033.78;5049917;28;20395;-58